createdAt,value
2023-01-27T00:00:28.795Z,9.00
2023-01-27T00:02:56.000Z,17.23
2023-01-27T00:05:23.199Z,6.80
2023-01-27T00:07:50.506Z,11.60
2023-01-27T00:10:18.707Z,15.93
2023-01-27T00:12:47.821Z,17.80
2023-01-27T00:15:15.742Z,14.57
2023-01-27T00:17:43.167Z,21.27
2023-01-27T00:20:11.430Z,9.87
2023-01-27T00:22:38.761Z,19.50
2023-01-27T00:25:06.206Z,8.37
2023-01-27T00:27:35.649Z,9.33
2023-01-27T00:30:05.431Z,8.63
2023-01-27T00:32:32.579Z,11.33
2023-01-27T00:34:59.709Z,8.23
2023-01-27T00:37:26.841Z,9.10
2023-01-27T00:39:53.950Z,8.70
2023-01-27T00:42:21.085Z,9.93
2023-01-27T00:44:50.206Z,10.73
2023-01-27T00:47:18.705Z,11.13
2023-01-27T00:49:45.847Z,13.13
2023-01-27T00:52:14.839Z,20.03
2023-01-27T00:54:41.972Z,13.17
2023-01-27T00:57:09.312Z,8.63
2023-01-27T00:59:36.464Z,16.40
2023-01-27T01:02:03.659Z,13.37
2023-01-27T01:04:32.605Z,9.63
2023-01-27T01:06:59.710Z,12.67
2023-01-27T01:09:26.853Z,9.60
2023-01-27T01:11:53.972Z,19.83
2023-01-27T01:14:21.081Z,9.40
2023-01-27T01:16:48.251Z,10.20
2023-01-27T01:19:15.364Z,14.37
2023-01-27T01:21:43.853Z,16.67
2023-01-27T01:24:11.027Z,19.20
2023-01-27T01:26:38.186Z,16.67
2023-01-27T01:29:06.305Z,14.30
2023-01-27T01:31:33.700Z,14.93
2023-01-27T01:34:00.838Z,17.83
2023-01-27T01:36:28.695Z,22.67
2023-01-27T01:38:58.163Z,23.83
2023-01-27T01:41:25.551Z,17.17
2023-01-27T01:43:52.702Z,17.00
2023-01-27T01:46:20.252Z,12.83
2023-01-27T01:48:48.963Z,13.60
2023-01-27T01:51:18.233Z,14.67
2023-01-27T01:53:48.295Z,15.87
2023-01-27T01:56:18.625Z,17.10
2023-01-27T01:58:46.087Z,17.23
2023-01-27T02:01:13.995Z,23.17
2023-01-27T02:03:42.016Z,20.80
2023-01-27T02:06:09.790Z,12.90
2023-01-27T02:08:39.710Z,17.03
2023-01-27T02:11:07.006Z,18.60
2023-01-27T02:13:35.460Z,16.00
2023-01-27T02:16:03.102Z,12.37
2023-01-27T02:18:30.722Z,15.67
2023-01-27T02:20:58.168Z,15.60
2023-01-27T02:23:33.062Z,13.37
2023-01-27T02:26:03.391Z,22.37
2023-01-27T02:28:31.339Z,22.30
2023-01-27T02:30:58.882Z,22.17
2023-01-27T02:33:26.327Z,20.97
2023-01-27T02:35:58.170Z,21.70
2023-01-27T02:38:26.214Z,20.40
2023-01-27T02:40:55.765Z,29.27
2023-01-27T02:43:25.040Z,17.00
2023-01-27T02:45:52.240Z,15.50
2023-01-27T02:48:19.994Z,18.80
2023-01-27T02:50:47.535Z,11.17
2023-01-27T02:53:14.701Z,9.10
2023-01-27T02:55:41.800Z,12.00
2023-01-27T02:58:08.920Z,12.77
2023-01-27T03:00:53.017Z,12.47
2023-01-27T03:03:20.169Z,7.90
2023-01-27T03:05:48.019Z,10.73
2023-01-27T03:08:15.719Z,9.50
2023-01-27T03:10:43.080Z,7.67
2023-01-27T03:13:10.210Z,9.53
2023-01-27T03:15:39.935Z,12.97
2023-01-27T03:18:09.217Z,11.43
2023-01-27T03:20:36.448Z,12.80
2023-01-27T03:23:03.843Z,11.83
2023-01-27T03:25:31.244Z,12.67
2023-01-27T03:27:58.487Z,13.03
2023-01-27T03:30:31.012Z,14.27
2023-01-27T03:33:13.386Z,15.93
2023-01-27T03:35:52.269Z,15.50
2023-01-27T03:38:21.484Z,15.20
2023-01-27T03:40:49.294Z,19.00
2023-01-27T03:43:16.398Z,14.57
2023-01-27T03:45:45.121Z,13.73
2023-01-27T03:48:13.743Z,15.37
2023-01-27T03:50:40.895Z,12.60
2023-01-27T03:53:08.074Z,16.30
2023-01-27T03:55:35.919Z,9.63
2023-01-27T03:58:03.109Z,19.33
2023-01-27T04:00:30.264Z,14.77
2023-01-27T04:02:57.480Z,8.43
2023-01-27T04:05:25.990Z,13.23
2023-01-27T04:07:53.096Z,11.80
2023-01-27T04:10:20.223Z,12.27
2023-01-27T04:12:48.663Z,11.13
2023-01-27T04:15:15.837Z,17.37
2023-01-27T04:17:43.314Z,11.00
2023-01-27T04:20:11.218Z,9.10
2023-01-27T04:22:39.675Z,9.37
2023-01-27T04:25:07.307Z,10.30
2023-01-27T04:27:34.591Z,9.53
2023-01-27T04:30:01.703Z,8.53
2023-01-27T04:32:28.854Z,11.33
2023-01-27T04:34:56.101Z,9.67
2023-01-27T04:37:23.244Z,11.33
2023-01-27T04:39:51.713Z,10.33
2023-01-27T04:42:18.863Z,10.27
2023-01-27T04:44:45.969Z,15.87
2023-01-27T04:47:13.117Z,13.90
2023-01-27T04:49:40.227Z,12.20
2023-01-27T04:52:07.468Z,15.17
2023-01-27T04:54:34.567Z,16.70
2023-01-27T04:57:03.072Z,16.50
2023-01-27T04:59:30.200Z,18.50
2023-01-27T05:01:57.533Z,18.37
2023-01-27T05:04:24.870Z,13.10
2023-01-27T05:06:52.009Z,13.13
2023-01-27T05:09:19.145Z,14.80
2023-01-27T05:11:46.303Z,15.60
2023-01-27T05:14:14.903Z,18.30
2023-01-27T05:16:42.104Z,13.77
2023-01-27T05:19:09.443Z,19.80
2023-01-27T05:21:36.597Z,22.93
2023-01-27T05:24:03.902Z,16.07
2023-01-27T05:26:31.079Z,14.07
2023-01-27T05:28:58.836Z,20.60
2023-01-27T05:31:28.361Z,22.00
2023-01-27T05:33:56.369Z,19.47
2023-01-27T05:36:24.184Z,19.07
2023-01-27T05:38:51.447Z,19.10
2023-01-27T05:41:19.042Z,18.53
2023-01-27T05:43:46.980Z,20.50
2023-01-27T05:46:14.985Z,19.43
2023-01-27T05:48:44.592Z,18.87
2023-01-27T05:51:14.820Z,16.40
2023-01-27T05:53:42.468Z,23.53
2023-01-27T05:56:10.599Z,24.20
2023-01-27T05:58:37.845Z,17.40
2023-01-27T06:01:09.150Z,19.10
2023-01-27T06:03:36.597Z,20.50
2023-01-27T06:06:05.719Z,16.80
2023-01-27T06:08:33.185Z,17.17
2023-01-27T06:11:00.655Z,16.90
2023-01-27T06:13:28.267Z,20.83
2023-01-27T06:15:55.358Z,18.67
2023-01-27T06:18:22.849Z,22.10
2023-01-27T06:20:50.223Z,16.80
2023-01-27T06:23:18.843Z,14.13
2023-01-27T06:25:48.615Z,17.47
2023-01-27T06:28:28.343Z,18.70
2023-01-27T06:30:56.493Z,18.67
2023-01-27T06:33:24.049Z,16.20
2023-01-27T06:35:51.283Z,16.37
2023-01-27T06:38:19.760Z,21.13
2023-01-27T06:40:46.875Z,17.80
2023-01-27T06:43:14.274Z,17.90
2023-01-27T06:45:41.523Z,17.17
2023-01-27T06:48:08.917Z,17.63
2023-01-27T06:50:36.545Z,19.70
2023-01-27T06:53:04.938Z,17.40
2023-01-27T06:55:33.733Z,15.30
2023-01-27T06:58:01.599Z,14.47
2023-01-27T07:00:28.960Z,13.73
2023-01-27T07:02:56.169Z,20.07
2023-01-27T07:05:23.409Z,20.77
2023-01-27T07:07:50.515Z,16.60
2023-01-27T07:10:18.137Z,18.73
2023-01-27T07:12:46.637Z,20.10
2023-01-27T07:15:13.938Z,17.30
2023-01-27T07:17:41.136Z,17.37
2023-01-27T07:20:09.302Z,16.40
2023-01-27T07:22:36.445Z,16.43
2023-01-27T07:25:03.671Z,20.07
2023-01-27T07:27:30.820Z,20.63
2023-01-27T07:29:59.309Z,19.93
2023-01-27T07:32:28.185Z,19.03
2023-01-27T07:34:55.630Z,17.37
2023-01-27T07:37:22.748Z,19.97
2023-01-27T07:39:49.849Z,17.40
2023-01-27T07:42:16.977Z,17.63
2023-01-27T07:44:44.143Z,15.97
2023-01-27T07:47:12.711Z,16.00
2023-01-27T07:49:39.891Z,18.53
2023-01-27T07:52:07.010Z,16.83
2023-01-27T07:54:34.145Z,18.33
2023-01-27T07:57:01.266Z,20.67
2023-01-27T07:59:28.764Z,14.10
2023-01-27T08:01:55.946Z,13.53
2023-01-27T08:04:24.437Z,13.83
2023-01-27T08:06:51.534Z,15.63
2023-01-27T08:09:18.855Z,14.40
2023-01-27T08:11:45.985Z,17.47
2023-01-27T08:14:13.210Z,15.70
2023-01-27T08:16:40.468Z,14.43
2023-01-27T08:19:07.691Z,13.50
2023-01-27T08:21:36.146Z,12.40
2023-01-27T08:24:03.263Z,14.83
2023-01-27T08:26:30.392Z,11.57
2023-01-27T08:28:57.495Z,13.07
2023-01-27T08:31:24.628Z,13.77
2023-01-27T08:33:52.856Z,10.53
2023-01-27T08:36:20.479Z,12.50
2023-01-27T08:38:49.296Z,11.13
2023-01-27T08:41:17.412Z,12.80
2023-01-27T08:43:44.588Z,9.60
2023-01-27T08:46:12.064Z,12.57
2023-01-27T08:48:39.357Z,10.47
2023-01-27T08:51:07.296Z,9.43
2023-01-27T08:53:34.468Z,11.20
2023-01-27T08:56:04.905Z,12.60
2023-01-27T08:58:32.084Z,12.60
2023-01-27T09:01:00.192Z,11.57
2023-01-27T09:03:27.452Z,15.20
2023-01-27T09:05:54.564Z,15.60
2023-01-27T09:08:22.089Z,13.70
2023-01-27T09:10:49.174Z,8.97
2023-01-27T09:13:17.812Z,15.50
2023-01-27T09:15:44.932Z,13.80
2023-01-27T09:18:12.063Z,12.93
2023-01-27T09:20:39.216Z,13.27
2023-01-27T09:23:06.378Z,12.87
2023-01-27T09:25:33.508Z,14.10
2023-01-27T09:28:00.907Z,12.60
2023-01-27T09:30:29.622Z,11.47
2023-01-27T09:32:58.446Z,14.50
2023-01-27T09:35:26.021Z,12.37
2023-01-27T09:37:54.833Z,14.07
2023-01-27T09:40:29.489Z,12.77
2023-01-27T09:43:04.021Z,14.43
2023-01-27T09:45:37.062Z,13.77
2023-01-27T09:48:14.174Z,9.70
2023-01-27T09:50:43.514Z,11.70
2023-01-27T09:53:34.480Z,11.00
2023-01-27T09:56:03.783Z,11.40
2023-01-27T09:58:38.241Z,12.00
2023-01-27T10:01:10.467Z,11.83
2023-01-27T10:03:44.121Z,15.10
2023-01-27T10:06:18.120Z,10.10
2023-01-27T10:08:53.637Z,15.17
2023-01-27T10:11:24.279Z,14.67
2023-01-27T10:14:03.060Z,10.90
2023-01-27T10:16:42.840Z,13.23
2023-01-27T10:19:14.371Z,10.77
2023-01-27T10:21:46.753Z,11.67
2023-01-27T10:24:18.379Z,12.07
2023-01-27T10:26:50.062Z,12.70
2023-01-27T10:29:21.525Z,12.93
2023-01-27T10:31:53.623Z,10.80
2023-01-27T10:34:27.223Z,10.87
2023-01-27T10:37:00.926Z,11.60
2023-01-27T10:39:32.367Z,9.67
2023-01-27T10:42:05.042Z,9.10
2023-01-27T10:44:42.683Z,9.40
2023-01-27T10:47:16.354Z,12.10
2023-01-27T10:49:47.097Z,12.80
2023-01-27T10:52:17.071Z,10.43
2023-01-27T10:54:48.621Z,9.47
2023-01-27T10:57:18.100Z,9.67
2023-01-27T11:00:05.313Z,8.27
2023-01-27T11:02:39.625Z,9.80
2023-01-27T11:05:09.360Z,7.17
2023-01-27T11:07:42.065Z,7.97
2023-01-27T11:10:14.928Z,10.53
2023-01-27T11:12:44.966Z,10.33
2023-01-27T11:15:17.658Z,8.20
2023-01-27T11:17:49.524Z,10.80
2023-01-27T11:20:24.852Z,8.07
2023-01-27T11:22:55.730Z,9.67
2023-01-27T11:25:26.122Z,9.33
2023-01-27T11:28:07.333Z,11.17
2023-01-27T11:30:37.036Z,14.30
2023-01-27T11:33:11.947Z,8.77
2023-01-27T11:35:39.048Z,10.33
2023-01-27T11:38:15.272Z,12.30
2023-01-27T11:40:43.462Z,12.03
2023-01-27T11:43:15.391Z,13.23
2023-01-27T11:45:42.690Z,11.73
2023-01-27T11:48:12.929Z,12.60
2023-01-27T11:50:41.794Z,13.40
2023-01-27T11:53:12.775Z,12.03
2023-01-27T11:55:42.888Z,10.00
2023-01-27T11:58:12.861Z,17.73
2023-01-27T12:00:43.104Z,11.00
2023-01-27T12:03:19.189Z,12.97
2023-01-27T12:05:48.542Z,9.20
2023-01-27T12:08:35.924Z,10.17
2023-01-27T12:11:16.586Z,11.20
2023-01-27T12:13:48.518Z,10.63
2023-01-27T12:16:15.972Z,10.83
2023-01-27T12:18:50.147Z,10.07
2023-01-27T12:21:17.982Z,12.23
2023-01-27T12:23:48.963Z,9.07
2023-01-27T12:26:16.323Z,8.60
2023-01-27T12:28:48.110Z,10.93
2023-01-27T12:31:18.615Z,10.97
2023-01-27T12:33:46.946Z,13.07
2023-01-27T12:36:16.550Z,9.60
2023-01-27T12:38:49.546Z,11.23
2023-01-27T12:41:20.927Z,10.70
2023-01-27T12:43:52.107Z,8.97
2023-01-27T12:46:21.824Z,11.40
2023-01-27T12:48:49.836Z,9.37
2023-01-27T12:51:20.456Z,9.80
2023-01-27T12:53:48.842Z,12.93
2023-01-27T12:56:17.307Z,12.07
2023-01-27T12:58:45.228Z,10.23
2023-01-27T13:01:22.064Z,10.63
2023-01-27T13:03:51.323Z,10.97
2023-01-27T13:06:21.291Z,13.97
2023-01-27T13:08:50.420Z,18.20
2023-01-27T13:11:20.995Z,15.73
2023-01-27T13:13:49.511Z,17.83
2023-01-27T13:16:17.960Z,11.80
2023-01-27T13:18:53.225Z,22.50
2023-01-27T13:21:23.284Z,14.70
2023-01-27T13:23:51.165Z,13.57
2023-01-27T13:26:19.541Z,15.13
2023-01-27T13:28:53.165Z,14.07
2023-01-27T13:31:23.312Z,14.20
2023-01-27T13:33:52.153Z,14.20
2023-01-27T13:36:26.285Z,11.77
2023-01-27T13:38:57.026Z,11.87
2023-01-27T13:41:26.684Z,11.07
2023-01-27T13:43:58.560Z,12.00
2023-01-27T13:46:27.795Z,11.73
2023-01-27T13:48:55.550Z,8.33
2023-01-27T13:51:25.465Z,8.10
2023-01-27T13:53:54.663Z,9.73
2023-01-27T13:56:28.768Z,11.33
2023-01-27T13:59:01.029Z,6.80
2023-01-27T14:01:32.688Z,7.80
2023-01-27T14:04:17.354Z,6.53
2023-01-27T14:06:50.204Z,9.57
2023-01-27T14:09:28.813Z,5.60
2023-01-27T14:12:01.772Z,7.93
2023-01-27T14:14:35.284Z,6.93
2023-01-27T14:17:12.504Z,4.43
2023-01-27T14:19:42.967Z,7.07
2023-01-27T14:22:15.979Z,4.03
2023-01-27T14:24:47.091Z,4.30
2023-01-27T14:27:16.921Z,4.43
2023-01-27T14:29:46.992Z,5.67
2023-01-27T14:32:19.725Z,4.10
2023-01-27T14:34:53.424Z,6.73
2023-01-27T14:37:25.340Z,4.37
2023-01-27T14:39:58.306Z,5.03
2023-01-27T14:42:30.433Z,5.50
2023-01-27T14:45:04.053Z,4.73
2023-01-27T14:47:34.403Z,4.97
2023-01-27T14:50:07.420Z,5.50
2023-01-27T14:52:40.132Z,5.63
2023-01-27T14:55:19.350Z,13.33
2023-01-27T14:57:49.751Z,8.20
2023-01-27T15:00:21.862Z,5.27
2023-01-27T15:02:53.912Z,5.00
2023-01-27T15:05:24.284Z,7.13
2023-01-27T15:07:57.341Z,6.10
2023-01-27T15:10:25.113Z,8.90
2023-01-27T15:13:16.280Z,6.07
2023-01-27T15:15:55.608Z,8.37
2023-01-27T15:18:37.001Z,9.80
2023-01-27T15:21:21.964Z,8.20
2023-01-27T15:24:00.822Z,7.60
2023-01-27T15:26:29.339Z,9.87
2023-01-27T15:28:58.566Z,6.50
2023-01-27T15:31:27.136Z,7.40
2023-01-27T15:33:56.003Z,7.43
2023-01-27T15:36:30.215Z,7.47
2023-01-27T15:39:02.517Z,7.07
2023-01-27T15:41:29.689Z,6.07
2023-01-27T15:44:04.059Z,5.40
2023-01-27T15:46:32.637Z,5.70
2023-01-27T15:49:00.663Z,5.60
2023-01-27T15:51:29.411Z,6.60
2023-01-27T15:53:58.499Z,7.90
2023-01-27T15:56:40.959Z,5.67
2023-01-27T15:59:12.351Z,6.67
2023-01-27T16:01:39.487Z,5.73
2023-01-27T16:04:08.450Z,4.87
2023-01-27T16:06:36.032Z,6.20
2023-01-27T16:09:04.464Z,6.20
2023-01-27T16:11:42.643Z,6.60
2023-01-27T16:14:28.306Z,5.07
2023-01-27T16:17:16.591Z,4.73
2023-01-27T16:19:45.544Z,4.80
2023-01-27T16:22:13.706Z,4.47
2023-01-27T16:24:42.508Z,5.40
2023-01-27T16:27:17.086Z,6.27
2023-01-27T16:29:46.347Z,6.53
2023-01-27T16:32:17.114Z,5.00
2023-01-27T16:34:46.741Z,5.67
2023-01-27T16:37:18.797Z,5.83
2023-01-27T16:39:47.918Z,6.57
2023-01-27T16:42:16.018Z,6.73
2023-01-27T16:44:45.760Z,6.40
2023-01-27T16:47:21.117Z,7.47
2023-01-27T16:49:50.289Z,5.90
2023-01-27T16:52:19.843Z,6.43
2023-01-27T16:54:51.275Z,6.50
2023-01-27T16:57:27.580Z,6.23
2023-01-27T16:59:55.343Z,7.30
2023-01-27T17:02:25.698Z,7.30
2023-01-27T17:04:54.139Z,7.50
2023-01-27T17:07:21.287Z,8.17
2023-01-27T17:09:50.755Z,7.43
2023-01-27T17:12:27.569Z,8.83
2023-01-27T17:14:55.074Z,7.77
2023-01-27T17:17:24.327Z,7.50
2023-01-27T17:19:52.503Z,8.17
2023-01-27T17:22:20.889Z,8.20
2023-01-27T17:24:50.153Z,8.30
2023-01-27T17:27:22.335Z,8.73
2023-01-27T17:29:50.337Z,8.30
2023-01-27T17:32:19.443Z,14.53
2023-01-27T17:34:48.282Z,14.13
2023-01-27T17:37:16.173Z,15.57
2023-01-27T17:39:43.723Z,11.03
2023-01-27T17:42:14.055Z,8.83
2023-01-27T17:44:41.185Z,7.87
2023-01-27T17:47:08.387Z,8.70
2023-01-27T17:49:35.521Z,9.20
2023-01-27T17:52:08.295Z,8.30
2023-01-27T17:54:36.349Z,8.30
2023-01-27T17:57:05.832Z,6.10
2023-01-27T17:59:33.889Z,8.77
2023-01-27T18:02:03.131Z,7.80
2023-01-27T18:04:32.387Z,7.00
2023-01-27T18:06:59.558Z,8.13
2023-01-27T18:09:28.132Z,6.40
2023-01-27T18:11:56.690Z,7.27
2023-01-27T18:14:23.858Z,7.50
2023-01-27T18:17:00.992Z,6.60
2023-01-27T18:19:28.122Z,8.53
2023-01-27T18:22:01.901Z,7.60
2023-01-27T18:24:30.806Z,10.10
2023-01-27T18:26:58.063Z,9.27
2023-01-27T18:29:26.213Z,15.47
2023-01-27T18:31:54.280Z,7.57
2023-01-27T18:34:24.101Z,7.60
2023-01-27T18:36:52.849Z,7.40
2023-01-27T18:39:28.727Z,7.80
2023-01-27T18:41:57.204Z,7.60
2023-01-27T18:44:24.327Z,6.53
2023-01-27T18:46:51.462Z,6.60
2023-01-27T18:49:18.632Z,9.23
2023-01-27T18:51:45.750Z,7.20
2023-01-27T18:54:12.856Z,7.43
2023-01-27T18:56:40.005Z,7.53
2023-01-27T18:59:08.480Z,8.10
2023-01-27T19:01:36.186Z,8.77
2023-01-27T19:04:03.370Z,6.63
2023-01-27T19:06:30.547Z,9.67
2023-01-27T19:08:57.675Z,7.80
2023-01-27T19:11:24.824Z,7.63
2023-01-27T19:13:51.957Z,10.70
2023-01-27T19:16:20.445Z,13.30
2023-01-27T19:18:47.559Z,10.67
2023-01-27T19:21:15.901Z,12.63
2023-01-27T19:23:43.007Z,11.70
2023-01-27T19:26:14.547Z,12.47
2023-01-27T19:28:41.660Z,13.00
2023-01-27T19:31:09.191Z,10.10
2023-01-27T19:33:37.718Z,10.90
2023-01-27T19:36:14.381Z,12.33
2023-01-27T19:38:41.495Z,11.27
2023-01-27T19:41:09.915Z,14.33
2023-01-27T19:43:37.947Z,10.20
2023-01-27T19:46:10.150Z,11.00
2023-01-27T19:48:38.658Z,9.53
2023-01-27T19:51:05.827Z,10.67
2023-01-27T19:53:32.964Z,12.13
2023-01-27T19:56:00.143Z,11.33
2023-01-27T19:58:28.092Z,11.83
2023-01-27T20:00:55.924Z,10.60
2023-01-27T20:03:23.501Z,11.40
2023-01-27T20:05:51.971Z,12.50
2023-01-27T20:08:20.228Z,13.20
2023-01-27T20:10:47.525Z,9.53
2023-01-27T20:13:15.415Z,11.10
2023-01-27T20:15:42.556Z,12.47
2023-01-27T20:18:10.148Z,11.97
2023-01-27T20:20:37.282Z,12.73
2023-01-27T20:23:05.778Z,10.53
2023-01-27T20:25:32.988Z,13.23
2023-01-27T20:28:01.476Z,11.00
2023-01-27T20:30:29.589Z,10.60
2023-01-27T20:32:56.731Z,12.40
2023-01-27T20:35:24.115Z,9.60
2023-01-27T20:37:51.847Z,9.70
2023-01-27T20:40:21.795Z,12.67
2023-01-27T20:42:49.219Z,12.40
2023-01-27T20:45:16.768Z,11.10
2023-01-27T20:47:43.977Z,9.90
2023-01-27T20:50:11.608Z,9.73
2023-01-27T20:52:38.762Z,10.37
2023-01-27T20:55:06.382Z,12.40
2023-01-27T20:57:35.505Z,7.73
2023-01-27T21:00:02.723Z,11.00
2023-01-27T21:02:30.230Z,10.40
2023-01-27T21:04:57.443Z,9.37
2023-01-27T21:07:24.771Z,10.90
2023-01-27T21:09:51.942Z,9.87
2023-01-27T21:12:19.067Z,11.87
2023-01-27T21:14:47.556Z,11.30
2023-01-27T21:17:14.725Z,9.47
2023-01-27T21:19:41.884Z,7.70
2023-01-27T21:22:08.990Z,8.17
2023-01-27T21:24:36.192Z,9.43
2023-01-27T21:27:03.350Z,7.90
2023-01-27T21:29:30.518Z,7.20
2023-01-27T21:31:59.095Z,8.83
2023-01-27T21:34:26.233Z,8.03
2023-01-27T21:36:53.354Z,8.20
2023-01-27T21:39:20.439Z,7.67
2023-01-27T21:41:47.567Z,9.00
2023-01-27T21:44:16.810Z,6.50
2023-01-27T21:46:43.958Z,5.43
2023-01-27T21:49:12.419Z,4.27
2023-01-27T21:51:39.520Z,7.80
2023-01-27T21:54:06.615Z,4.93
2023-01-27T21:56:33.770Z,5.70
2023-01-27T21:59:00.863Z,3.50
2023-01-27T22:01:30.064Z,6.40
2023-01-27T22:03:58.504Z,7.97
2023-01-27T22:06:27.023Z,8.50
2023-01-27T22:08:54.141Z,6.30
2023-01-27T22:11:21.329Z,7.37
2023-01-27T22:13:48.445Z,6.83
2023-01-27T22:16:16.257Z,6.57
2023-01-27T22:18:43.421Z,6.60
2023-01-27T22:21:10.598Z,6.93
2023-01-27T22:23:39.034Z,5.80
2023-01-27T22:26:06.987Z,9.77
2023-01-27T22:28:34.223Z,5.73
2023-01-27T22:31:01.910Z,5.60
2023-01-27T22:33:29.114Z,5.37
2023-01-27T22:35:59.596Z,9.40
2023-01-27T22:38:26.737Z,10.93
2023-01-27T22:40:58.315Z,9.40
2023-01-27T22:43:25.481Z,8.60
2023-01-27T22:45:52.660Z,7.77
2023-01-27T22:48:19.856Z,6.73
2023-01-27T22:50:46.964Z,6.50
2023-01-27T22:53:14.064Z,8.07
2023-01-27T22:55:41.191Z,7.60
2023-01-27T22:58:09.839Z,6.23
2023-01-27T23:00:36.983Z,7.77
2023-01-27T23:03:04.217Z,9.90
2023-01-27T23:05:31.376Z,5.33
2023-01-27T23:07:58.513Z,6.80
2023-01-27T23:10:25.676Z,6.73
2023-01-27T23:12:52.815Z,7.83
2023-01-27T23:15:21.255Z,6.10
2023-01-27T23:17:48.538Z,10.10
2023-01-27T23:20:15.775Z,9.27
2023-01-27T23:22:42.901Z,6.63
2023-01-27T23:25:10.577Z,5.83
2023-01-27T23:27:37.717Z,8.17
2023-01-27T23:30:05.429Z,6.60
2023-01-27T23:32:33.867Z,4.47
2023-01-27T23:35:01.009Z,7.07
2023-01-27T23:37:28.171Z,7.63
2023-01-27T23:39:55.288Z,5.73
2023-01-27T23:42:22.424Z,4.73
2023-01-27T23:44:49.556Z,5.90
2023-01-27T23:47:17.016Z,7.67
2023-01-27T23:49:45.507Z,3.77
2023-01-27T23:52:12.617Z,6.00
2023-01-27T23:54:39.714Z,4.60
2023-01-27T23:57:07.924Z,7.57
2023-01-27T23:59:35.028Z,6.83
